Overview Statistics Trail Chart Weather Telemetry Raw packets
 

This is the latest recevied telemetry packets stored in our database for station/object DF4FW-12. If no packets are shown the sender has not sent any telemetry packets the latest 10 day(s).

Telemetry packets is used to share measurements like repeteater parameters, battery voltage, radiation readings (or any other measurements).

<< 1 2 3 4 >>
Time Press* Temp.in* Hum* QNH* Temp.out*
1788702203 1024.4 hPa 23.8 C deg 50.9 % 1025.3 hPa 0 C deg
1788700391 1024.5 hPa 24 C deg 51 % 1025.3 hPa 0 C deg
1788694948 1025.3 hPa 24.7 C deg 48.5 % 1026.1 hPa 0 C deg
1788693128 1025.4 hPa 25.4 C deg 46.9 % 1026.3 hPa 0 C deg
1788691319 1025.6 hPa 25.3 C deg 48 % 1026.4 hPa 0 C deg
1788685871 1025.7 hPa 23.6 C deg 50.7 % 1026.5 hPa 0 C deg
1788684057 1025.9 hPa 23.8 C deg 50.4 % 1026.7 hPa 0 C deg
1788682248 1025.6 hPa 22.2 C deg 53.4 % 1026.4 hPa 0 C deg
1788678609 1025 hPa 21.4 C deg 53.8 % 1025.8 hPa 0 C deg
1788676792 1024.9 hPa 21.2 C deg 53.8 % 1025.7 hPa 0 C deg
1788675034 1024.8 hPa 21.2 C deg 53.2 % 1025.7 hPa 0 C deg
1788669565 1024.6 hPa 21.6 C deg 52.4 % 1025.4 hPa 0 C deg
1788667717 1024.4 hPa 21.7 C deg 52.3 % 1025.2 hPa 0 C deg
1788664106 1024.1 hPa 22 C deg 52.1 % 1024.9 hPa 0 C deg
1788662278 1024.1 hPa 22.1 C deg 52.1 % 1024.9 hPa 0 C deg
1788660491 1024.1 hPa 22.2 C deg 51.9 % 1025 hPa 0 C deg
1788656833 1023.7 hPa 22.5 C deg 51.6 % 1024.5 hPa 0 C deg
1788655021 1023.5 hPa 22.8 C deg 51.4 % 1024.4 hPa 0 C deg
1788651391 1023.2 hPa 23.3 C deg 51 % 1024 hPa 0 C deg
1788647752 1022.7 hPa 24.2 C deg 49.7 % 1023.5 hPa 0 C deg
1788645934 1022.4 hPa 25.2 C deg 48.3 % 1023.2 hPa 0 C deg
1788644124 1022.4 hPa 25.9 C deg 47.4 % 1023.2 hPa 0 C deg
1788638674 1021.8 hPa 25.8 C deg 48 % 1022.6 hPa 0 C deg
1788636860 1021.4 hPa 25.8 C deg 48.2 % 1022.2 hPa 0 C deg
1788635044 1021.1 hPa 25.7 C deg 48.4 % 1021.9 hPa 0 C deg
*Used Equation Coefficients:
Press: 0, 1, 0
Temp.in: 0, 1, 0
Hum: 0, 1, 0
QNH: 0, 1, 0
Temp.out: 0, 1, 0

  • The parameter names for the analog channels will be Value1, Value2, Value3 (up to Value5) if station has not sent a PARAM-packet that specifies the parameter names for each analog channel.
  • Each analog value is a decimal number between 000 and 255 (according to APRS specifications). The receiver use the telemetry equation coefficientsto to restore the original sensor values. If no EQNS-packet with equation coefficients is sent we will show the values as is (this corresponds to the equation coefficients a=0, b=1 and c=0).
    The sent equation coefficients is used in the equation: a * value2 + b * value + c.
  • The units for the analog values will not be shown if station has not sent a UNIT-packet specifying what unit's to use.
  • The parameter names for the digital bits will be Bit1, Bit2, Bit3 (up to Bit8) if station has not sent a PARAM-packet that specifies the parameter names for each digital bit.
  • All bit labels will be named "On" if station has not sent a UNIT-packet that specifies the label of each bit.
  • A bit is considered to be On when the bit is 1 if station has not sent a BITS-packet that specifies another "Bit sense" (a BITS-packet specify the state of the bits that match the BIT labels)